sensor_id;sensor_type;location;lat;lon;timestamp;P1;durP1;ratioP1;P2;durP2;ratioP2
10947;SDS011;5526;42.070;24.752;2024-03-07T00:00:27;29.48;;;25.58;;
10947;SDS011;5526;42.070;24.752;2024-03-07T00:02:54;31.67;;;25.73;;
10947;SDS011;5526;42.070;24.752;2024-03-07T00:05:21;29.33;;;25.52;;
10947;SDS011;5526;42.070;24.752;2024-03-07T00:07:49;31.75;;;25.77;;
10947;SDS011;5526;42.070;24.752;2024-03-07T00:10:18;33.00;;;27.00;;
10947;SDS011;5526;42.070;24.752;2024-03-07T00:12:48;35.72;;;27.60;;
10947;SDS011;5526;42.070;24.752;2024-03-07T00:15:15;34.28;;;28.33;;
10947;SDS011;5526;42.070;24.752;2024-03-07T00:17:42;34.63;;;28.73;;
10947;SDS011;5526;42.070;24.752;2024-03-07T00:20:10;37.00;;;29.90;;
10947;SDS011;5526;42.070;24.752;2024-03-07T00:22:40;38.05;;;29.23;;
10947;SDS011;5526;42.070;24.752;2024-03-07T00:25:08;39.03;;;28.40;;
10947;SDS011;5526;42.070;24.752;2024-03-07T00:27:38;38.35;;;28.50;;
10947;SDS011;5526;42.070;24.752;2024-03-07T00:30:05;37.35;;;29.48;;
10947;SDS011;5526;42.070;24.752;2024-03-07T00:32:34;35.40;;;29.17;;
10947;SDS011;5526;42.070;24.752;2024-03-07T00:35:04;38.22;;;28.55;;
10947;SDS011;5526;42.070;24.752;2024-03-07T00:37:33;36.75;;;30.52;;
10947;SDS011;5526;42.070;24.752;2024-03-07T00:40:00;38.42;;;30.08;;
10947;SDS011;5526;42.070;24.752;2024-03-07T00:42:28;38.55;;;30.25;;
10947;SDS011;5526;42.070;24.752;2024-03-07T00:44:57;37.55;;;30.38;;
10947;SDS011;5526;42.070;24.752;2024-03-07T00:47:24;39.33;;;30.75;;
10947;SDS011;5526;42.070;24.752;2024-03-07T00:49:51;39.38;;;30.00;;
10947;SDS011;5526;42.070;24.752;2024-03-07T00:52:19;36.85;;;30.08;;
10947;SDS011;5526;42.070;24.752;2024-03-07T00:54:46;36.70;;;30.35;;
10947;SDS011;5526;42.070;24.752;2024-03-07T00:57:13;37.58;;;30.95;;
10947;SDS011;5526;42.070;24.752;2024-03-07T00:59:40;38.50;;;30.60;;
10947;SDS011;5526;42.070;24.752;2024-03-07T01:02:09;37.60;;;30.70;;
10947;SDS011;5526;42.070;24.752;2024-03-07T01:04:36;38.05;;;30.38;;
10947;SDS011;5526;42.070;24.752;2024-03-07T01:07:03;39.92;;;31.63;;
10947;SDS011;5526;42.070;24.752;2024-03-07T01:09:30;39.03;;;31.23;;
10947;SDS011;5526;42.070;24.752;2024-03-07T01:11:56;39.45;;;30.15;;
10947;SDS011;5526;42.070;24.752;2024-03-07T01:14:25;40.58;;;30.90;;
10947;SDS011;5526;42.070;24.752;2024-03-07T01:16:52;35.80;;;28.90;;
10947;SDS011;5526;42.070;24.752;2024-03-07T01:19:20;36.22;;;29.75;;
10947;SDS011;5526;42.070;24.752;2024-03-07T01:21:47;36.47;;;29.20;;
10947;SDS011;5526;42.070;24.752;2024-03-07T01:24:15;37.95;;;29.75;;
10947;SDS011;5526;42.070;24.752;2024-03-07T01:26:43;36.67;;;29.63;;
10947;SDS011;5526;42.070;24.752;2024-03-07T01:29:10;36.75;;;29.67;;
10947;SDS011;5526;42.070;24.752;2024-03-07T01:31:37;40.05;;;29.33;;
10947;SDS011;5526;42.070;24.752;2024-03-07T01:34:04;37.75;;;29.02;;
10947;SDS011;5526;42.070;24.752;2024-03-07T01:36:32;38.80;;;31.02;;
10947;SDS011;5526;42.070;24.752;2024-03-07T01:38:59;37.47;;;30.65;;
10947;SDS011;5526;42.070;24.752;2024-03-07T01:41:27;37.88;;;30.60;;
10947;SDS011;5526;42.070;24.752;2024-03-07T01:43:54;38.75;;;29.70;;
10947;SDS011;5526;42.070;24.752;2024-03-07T01:46:21;39.85;;;31.17;;
10947;SDS011;5526;42.070;24.752;2024-03-07T01:48:49;36.28;;;30.05;;
10947;SDS011;5526;42.070;24.752;2024-03-07T01:51:17;36.38;;;30.08;;
10947;SDS011;5526;42.070;24.752;2024-03-07T01:53:45;38.20;;;30.50;;
10947;SDS011;5526;42.070;24.752;2024-03-07T01:56:15;40.65;;;31.30;;
10947;SDS011;5526;42.070;24.752;2024-03-07T01:58:43;37.65;;;29.48;;
10947;SDS011;5526;42.070;24.752;2024-03-07T02:01:13;37.53;;;29.65;;
10947;SDS011;5526;42.070;24.752;2024-03-07T02:03:40;38.95;;;27.85;;
10947;SDS011;5526;42.070;24.752;2024-03-07T02:06:08;38.35;;;28.90;;
10947;SDS011;5526;42.070;24.752;2024-03-07T02:08:35;35.90;;;29.23;;
10947;SDS011;5526;42.070;24.752;2024-03-07T02:11:04;36.00;;;28.30;;
10947;SDS011;5526;42.070;24.752;2024-03-07T02:13:31;35.47;;;27.38;;
10947;SDS011;5526;42.070;24.752;2024-03-07T02:15:58;34.30;;;27.35;;
10947;SDS011;5526;42.070;24.752;2024-03-07T02:18:25;36.65;;;27.27;;
10947;SDS011;5526;42.070;24.752;2024-03-07T02:20:54;37.65;;;28.35;;
10947;SDS011;5526;42.070;24.752;2024-03-07T02:23:21;36.20;;;26.75;;
10947;SDS011;5526;42.070;24.752;2024-03-07T02:25:48;33.28;;;27.10;;
10947;SDS011;5526;42.070;24.752;2024-03-07T02:28:15;34.17;;;27.00;;
10947;SDS011;5526;42.070;24.752;2024-03-07T02:30:42;33.85;;;27.23;;
10947;SDS011;5526;42.070;24.752;2024-03-07T02:33:10;36.92;;;26.90;;
10947;SDS011;5526;42.070;24.752;2024-03-07T02:35:37;33.35;;;26.48;;
10947;SDS011;5526;42.070;24.752;2024-03-07T02:38:06;35.45;;;25.80;;
10947;SDS011;5526;42.070;24.752;2024-03-07T02:40:33;34.28;;;26.70;;
10947;SDS011;5526;42.070;24.752;2024-03-07T02:43:00;37.17;;;25.90;;
10947;SDS011;5526;42.070;24.752;2024-03-07T02:45:30;35.28;;;24.08;;
10947;SDS011;5526;42.070;24.752;2024-03-07T02:47:57;31.92;;;24.65;;
10947;SDS011;5526;42.070;24.752;2024-03-07T02:50:24;30.42;;;24.77;;
10947;SDS011;5526;42.070;24.752;2024-03-07T02:52:51;34.92;;;25.13;;
10947;SDS011;5526;42.070;24.752;2024-03-07T02:55:20;30.00;;;23.45;;
10947;SDS011;5526;42.070;24.752;2024-03-07T02:57:47;31.13;;;23.75;;
10947;SDS011;5526;42.070;24.752;2024-03-07T03:00:15;32.38;;;24.85;;
10947;SDS011;5526;42.070;24.752;2024-03-07T03:02:51;29.15;;;23.25;;
10947;SDS011;5526;42.070;24.752;2024-03-07T03:05:19;30.33;;;23.27;;
10947;SDS011;5526;42.070;24.752;2024-03-07T03:07:46;32.40;;;24.92;;
10947;SDS011;5526;42.070;24.752;2024-03-07T03:10:21;36.33;;;25.50;;
10947;SDS011;5526;42.070;24.752;2024-03-07T03:12:52;35.13;;;24.85;;
10947;SDS011;5526;42.070;24.752;2024-03-07T03:15:20;32.28;;;24.25;;
10947;SDS011;5526;42.070;24.752;2024-03-07T03:17:47;34.35;;;24.50;;
10947;SDS011;5526;42.070;24.752;2024-03-07T03:20:14;37.28;;;25.65;;
10947;SDS011;5526;42.070;24.752;2024-03-07T03:22:50;37.60;;;27.73;;
10947;SDS011;5526;42.070;24.752;2024-03-07T03:25:21;42.25;;;27.80;;
10947;SDS011;5526;42.070;24.752;2024-03-07T03:27:49;38.67;;;27.90;;
10947;SDS011;5526;42.070;24.752;2024-03-07T03:30:16;40.47;;;28.38;;
10947;SDS011;5526;42.070;24.752;2024-03-07T03:32:45;39.35;;;28.73;;
10947;SDS011;5526;42.070;24.752;2024-03-07T03:35:13;39.38;;;28.23;;
10947;SDS011;5526;42.070;24.752;2024-03-07T03:37:41;42.08;;;28.77;;
10947;SDS011;5526;42.070;24.752;2024-03-07T03:40:09;41.30;;;27.08;;
10947;SDS011;5526;42.070;24.752;2024-03-07T03:42:38;40.75;;;26.80;;
10947;SDS011;5526;42.070;24.752;2024-03-07T03:45:06;34.38;;;24.40;;
10947;SDS011;5526;42.070;24.752;2024-03-07T03:47:35;31.30;;;23.67;;
10947;SDS011;5526;42.070;24.752;2024-03-07T03:50:03;29.25;;;23.45;;
10947;SDS011;5526;42.070;24.752;2024-03-07T03:52:31;34.00;;;23.52;;
10947;SDS011;5526;42.070;24.752;2024-03-07T03:54:58;32.40;;;23.30;;
10947;SDS011;5526;42.070;24.752;2024-03-07T03:57:25;27.83;;;22.35;;
10947;SDS011;5526;42.070;24.752;2024-03-07T03:59:54;26.60;;;22.13;;
10947;SDS011;5526;42.070;24.752;2024-03-07T04:02:21;28.77;;;22.20;;
10947;SDS011;5526;42.070;24.752;2024-03-07T04:04:49;31.08;;;22.92;;
10947;SDS011;5526;42.070;24.752;2024-03-07T04:07:16;28.90;;;22.20;;
10947;SDS011;5526;42.070;24.752;2024-03-07T04:09:44;30.70;;;24.38;;
10947;SDS011;5526;42.070;24.752;2024-03-07T04:12:12;28.65;;;21.98;;
10947;SDS011;5526;42.070;24.752;2024-03-07T04:14:40;31.02;;;23.75;;
10947;SDS011;5526;42.070;24.752;2024-03-07T04:17:09;30.17;;;23.02;;
10947;SDS011;5526;42.070;24.752;2024-03-07T04:19:38;33.08;;;24.20;;
10947;SDS011;5526;42.070;24.752;2024-03-07T04:22:06;32.35;;;23.48;;
10947;SDS011;5526;42.070;24.752;2024-03-07T04:24:34;34.38;;;24.05;;
10947;SDS011;5526;42.070;24.752;2024-03-07T04:27:02;29.85;;;22.13;;
10947;SDS011;5526;42.070;24.752;2024-03-07T04:29:30;30.83;;;22.13;;
10947;SDS011;5526;42.070;24.752;2024-03-07T04:31:57;31.23;;;22.05;;
10947;SDS011;5526;42.070;24.752;2024-03-07T04:34:26;31.20;;;21.48;;
10947;SDS011;5526;42.070;24.752;2024-03-07T04:36:56;26.27;;;21.05;;
10947;SDS011;5526;42.070;24.752;2024-03-07T04:39:23;29.13;;;20.65;;
10947;SDS011;5526;42.070;24.752;2024-03-07T04:41:55;27.45;;;20.70;;
10947;SDS011;5526;42.070;24.752;2024-03-07T04:44:22;30.23;;;22.45;;
10947;SDS011;5526;42.070;24.752;2024-03-07T04:46:50;34.45;;;21.98;;
10947;SDS011;5526;42.070;24.752;2024-03-07T04:49:21;31.67;;;22.55;;
10947;SDS011;5526;42.070;24.752;2024-03-07T04:51:50;42.70;;;24.80;;
10947;SDS011;5526;42.070;24.752;2024-03-07T04:54:18;42.33;;;25.08;;
10947;SDS011;5526;42.070;24.752;2024-03-07T04:56:45;44.45;;;25.60;;
10947;SDS011;5526;42.070;24.752;2024-03-07T04:59:12;42.92;;;25.73;;
10947;SDS011;5526;42.070;24.752;2024-03-07T05:01:40;45.17;;;25.55;;
10947;SDS011;5526;42.070;24.752;2024-03-07T05:04:07;43.20;;;25.35;;
10947;SDS011;5526;42.070;24.752;2024-03-07T05:06:34;39.45;;;25.17;;
10947;SDS011;5526;42.070;24.752;2024-03-07T05:09:03;38.08;;;24.55;;
10947;SDS011;5526;42.070;24.752;2024-03-07T05:11:32;35.72;;;23.90;;
10947;SDS011;5526;42.070;24.752;2024-03-07T05:13:59;47.42;;;27.73;;
10947;SDS011;5526;42.070;24.752;2024-03-07T05:16:27;56.47;;;28.73;;
10947;SDS011;5526;42.070;24.752;2024-03-07T05:18:55;54.95;;;29.92;;
10947;SDS011;5526;42.070;24.752;2024-03-07T05:21:24;52.75;;;29.00;;
10947;SDS011;5526;42.070;24.752;2024-03-07T05:24:04;50.53;;;28.60;;
10947;SDS011;5526;42.070;24.752;2024-03-07T05:26:33;50.67;;;28.42;;
10947;SDS011;5526;42.070;24.752;2024-03-07T05:29:02;40.17;;;26.67;;
10947;SDS011;5526;42.070;24.752;2024-03-07T05:31:32;44.28;;;28.52;;
10947;SDS011;5526;42.070;24.752;2024-03-07T05:34:00;43.20;;;28.92;;
10947;SDS011;5526;42.070;24.752;2024-03-07T05:36:30;39.75;;;28.25;;
10947;SDS011;5526;42.070;24.752;2024-03-07T05:38:57;44.53;;;31.13;;
10947;SDS011;5526;42.070;24.752;2024-03-07T05:41:27;55.92;;;39.10;;
10947;SDS011;5526;42.070;24.752;2024-03-07T05:43:55;54.22;;;37.28;;
10947;SDS011;5526;42.070;24.752;2024-03-07T05:46:22;44.35;;;31.42;;
10947;SDS011;5526;42.070;24.752;2024-03-07T05:48:49;53.88;;;36.75;;
10947;SDS011;5526;42.070;24.752;2024-03-07T05:51:21;45.15;;;29.63;;
10947;SDS011;5526;42.070;24.752;2024-03-07T05:53:48;43.65;;;28.67;;
10947;SDS011;5526;42.070;24.752;2024-03-07T05:56:19;44.72;;;29.90;;
10947;SDS011;5526;42.070;24.752;2024-03-07T05:58:47;46.13;;;30.58;;
10947;SDS011;5526;42.070;24.752;2024-03-07T06:01:16;43.28;;;28.73;;
10947;SDS011;5526;42.070;24.752;2024-03-07T06:03:43;44.10;;;28.65;;
10947;SDS011;5526;42.070;24.752;2024-03-07T06:06:10;44.05;;;27.98;;
10947;SDS011;5526;42.070;24.752;2024-03-07T06:08:38;42.40;;;28.13;;
10947;SDS011;5526;42.070;24.752;2024-03-07T06:11:07;45.58;;;29.15;;
10947;SDS011;5526;42.070;24.752;2024-03-07T06:13:35;46.65;;;28.75;;
10947;SDS011;5526;42.070;24.752;2024-03-07T06:16:04;41.53;;;28.23;;
10947;SDS011;5526;42.070;24.752;2024-03-07T06:18:33;45.55;;;29.27;;
10947;SDS011;5526;42.070;24.752;2024-03-07T06:21:01;45.13;;;29.10;;
10947;SDS011;5526;42.070;24.752;2024-03-07T06:23:29;51.13;;;31.35;;
10947;SDS011;5526;42.070;24.752;2024-03-07T06:25:58;52.97;;;28.88;;
10947;SDS011;5526;42.070;24.752;2024-03-07T06:28:26;50.75;;;30.10;;
10947;SDS011;5526;42.070;24.752;2024-03-07T06:30:55;48.80;;;30.05;;
10947;SDS011;5526;42.070;24.752;2024-03-07T06:33:23;53.08;;;34.47;;
10947;SDS011;5526;42.070;24.752;2024-03-07T06:35:50;63.22;;;40.33;;
10947;SDS011;5526;42.070;24.752;2024-03-07T06:38:18;71.32;;;42.53;;
10947;SDS011;5526;42.070;24.752;2024-03-07T06:40:46;61.47;;;38.65;;
10947;SDS011;5526;42.070;24.752;2024-03-07T06:43:14;53.63;;;33.20;;
10947;SDS011;5526;42.070;24.752;2024-03-07T06:45:41;54.72;;;33.20;;
10947;SDS011;5526;42.070;24.752;2024-03-07T06:48:08;57.88;;;34.75;;
10947;SDS011;5526;42.070;24.752;2024-03-07T06:50:36;59.80;;;35.53;;
10947;SDS011;5526;42.070;24.752;2024-03-07T06:53:05;56.08;;;35.00;;
10947;SDS011;5526;42.070;24.752;2024-03-07T06:55:33;60.95;;;35.95;;
10947;SDS011;5526;42.070;24.752;2024-03-07T06:58:00;80.65;;;45.85;;
10947;SDS011;5526;42.070;24.752;2024-03-07T07:00:30;75.45;;;44.15;;
10947;SDS011;5526;42.070;24.752;2024-03-07T07:03:00;80.18;;;48.58;;
10947;SDS011;5526;42.070;24.752;2024-03-07T07:05:30;60.38;;;41.75;;
10947;SDS011;5526;42.070;24.752;2024-03-07T07:08:00;68.90;;;45.42;;
10947;SDS011;5526;42.070;24.752;2024-03-07T07:10:27;68.40;;;41.35;;
10947;SDS011;5526;42.070;24.752;2024-03-07T07:12:55;72.10;;;40.95;;
10947;SDS011;5526;42.070;24.752;2024-03-07T07:15:22;74.25;;;43.67;;
10947;SDS011;5526;42.070;24.752;2024-03-07T07:17:49;70.68;;;40.15;;
10947;SDS011;5526;42.070;24.752;2024-03-07T07:20:16;69.03;;;40.65;;
10947;SDS011;5526;42.070;24.752;2024-03-07T07:22:44;66.13;;;40.20;;
10947;SDS011;5526;42.070;24.752;2024-03-07T07:25:14;73.82;;;39.45;;
10947;SDS011;5526;42.070;24.752;2024-03-07T07:27:41;67.70;;;40.60;;
10947;SDS011;5526;42.070;24.752;2024-03-07T07:30:11;70.88;;;40.20;;
10947;SDS011;5526;42.070;24.752;2024-03-07T07:32:39;72.13;;;38.88;;
10947;SDS011;5526;42.070;24.752;2024-03-07T07:35:07;69.47;;;38.95;;
10947;SDS011;5526;42.070;24.752;2024-03-07T07:37:37;68.60;;;39.08;;
10947;SDS011;5526;42.070;24.752;2024-03-07T07:40:05;74.30;;;40.47;;
10947;SDS011;5526;42.070;24.752;2024-03-07T07:42:36;72.72;;;40.97;;
10947;SDS011;5526;42.070;24.752;2024-03-07T07:45:05;73.03;;;41.50;;
10947;SDS011;5526;42.070;24.752;2024-03-07T07:47:37;73.63;;;41.15;;
10947;SDS011;5526;42.070;24.752;2024-03-07T07:50:06;82.55;;;43.42;;
10947;SDS011;5526;42.070;24.752;2024-03-07T07:52:41;74.05;;;42.33;;
10947;SDS011;5526;42.070;24.752;2024-03-07T07:55:08;80.10;;;42.88;;
10947;SDS011;5526;42.070;24.752;2024-03-07T07:57:42;81.45;;;42.80;;
10947;SDS011;5526;42.070;24.752;2024-03-07T08:00:11;74.05;;;43.33;;
10947;SDS011;5526;42.070;24.752;2024-03-07T08:02:47;77.38;;;43.13;;
10947;SDS011;5526;42.070;24.752;2024-03-07T08:05:15;70.93;;;42.33;;
10947;SDS011;5526;42.070;24.752;2024-03-07T08:07:43;80.13;;;43.17;;
10947;SDS011;5526;42.070;24.752;2024-03-07T08:10:11;77.78;;;44.33;;
10947;SDS011;5526;42.070;24.752;2024-03-07T08:12:38;76.50;;;42.28;;
10947;SDS011;5526;42.070;24.752;2024-03-07T08:15:10;74.38;;;43.92;;
10947;SDS011;5526;42.070;24.752;2024-03-07T08:17:39;60.67;;;37.78;;
10947;SDS011;5526;42.070;24.752;2024-03-07T08:20:09;58.05;;;38.25;;
10947;SDS011;5526;42.070;24.752;2024-03-07T08:22:37;54.45;;;36.38;;
10947;SDS011;5526;42.070;24.752;2024-03-07T08:25:06;58.97;;;37.38;;
10947;SDS011;5526;42.070;24.752;2024-03-07T08:27:34;62.53;;;39.33;;
10947;SDS011;5526;42.070;24.752;2024-03-07T08:30:02;60.88;;;38.35;;
10947;SDS011;5526;42.070;24.752;2024-03-07T08:32:32;64.78;;;39.97;;
10947;SDS011;5526;42.070;24.752;2024-03-07T08:35:02;73.85;;;43.58;;
10947;SDS011;5526;42.070;24.752;2024-03-07T08:37:33;81.53;;;46.03;;
10947;SDS011;5526;42.070;24.752;2024-03-07T08:40:02;82.85;;;46.10;;
10947;SDS011;5526;42.070;24.752;2024-03-07T08:42:32;82.45;;;43.38;;
10947;SDS011;5526;42.070;24.752;2024-03-07T08:44:59;73.93;;;42.90;;
10947;SDS011;5526;42.070;24.752;2024-03-07T08:47:27;83.38;;;46.25;;
10947;SDS011;5526;42.070;24.752;2024-03-07T08:49:57;83.68;;;44.33;;
10947;SDS011;5526;42.070;24.752;2024-03-07T08:52:25;78.57;;;43.67;;
10947;SDS011;5526;42.070;24.752;2024-03-07T08:54:53;82.40;;;43.90;;
10947;SDS011;5526;42.070;24.752;2024-03-07T08:57:20;76.18;;;45.20;;
10947;SDS011;5526;42.070;24.752;2024-03-07T08:59:47;83.57;;;44.85;;
10947;SDS011;5526;42.070;24.752;2024-03-07T09:02:15;82.45;;;44.10;;
10947;SDS011;5526;42.070;24.752;2024-03-07T09:04:42;77.38;;;44.33;;
10947;SDS011;5526;42.070;24.752;2024-03-07T09:07:11;83.97;;;45.88;;
10947;SDS011;5526;42.070;24.752;2024-03-07T09:09:40;82.25;;;44.70;;
10947;SDS011;5526;42.070;24.752;2024-03-07T09:12:08;82.47;;;44.17;;
10947;SDS011;5526;42.070;24.752;2024-03-07T09:14:36;73.15;;;42.75;;
10947;SDS011;5526;42.070;24.752;2024-03-07T09:17:03;76.75;;;43.30;;
10947;SDS011;5526;42.070;24.752;2024-03-07T09:19:30;74.95;;;42.85;;
10947;SDS011;5526;42.070;24.752;2024-03-07T09:21:57;70.70;;;42.05;;
10947;SDS011;5526;42.070;24.752;2024-03-07T09:24:26;66.05;;;40.92;;
10947;SDS011;5526;42.070;24.752;2024-03-07T09:26:53;58.33;;;38.00;;
10947;SDS011;5526;42.070;24.752;2024-03-07T09:29:22;54.55;;;36.38;;
10947;SDS011;5526;42.070;24.752;2024-03-07T09:31:50;51.28;;;35.28;;
10947;SDS011;5526;42.070;24.752;2024-03-07T09:34:18;55.40;;;36.70;;
10947;SDS011;5526;42.070;24.752;2024-03-07T09:36:45;54.38;;;35.95;;
10947;SDS011;5526;42.070;24.752;2024-03-07T09:39:14;52.80;;;36.42;;
10947;SDS011;5526;42.070;24.752;2024-03-07T09:41:42;48.22;;;34.08;;
10947;SDS011;5526;42.070;24.752;2024-03-07T09:44:10;49.38;;;32.47;;
10947;SDS011;5526;42.070;24.752;2024-03-07T09:46:42;48.67;;;31.90;;
10947;SDS011;5526;42.070;24.752;2024-03-07T09:49:12;47.03;;;33.40;;
10947;SDS011;5526;42.070;24.752;2024-03-07T09:51:40;44.75;;;29.52;;
10947;SDS011;5526;42.070;24.752;2024-03-07T09:54:08;43.58;;;30.00;;
10947;SDS011;5526;42.070;24.752;2024-03-07T09:56:35;40.53;;;29.75;;
10947;SDS011;5526;42.070;24.752;2024-03-07T09:59:05;38.60;;;29.15;;
10947;SDS011;5526;42.070;24.752;2024-03-07T10:01:37;39.97;;;30.23;;
10947;SDS011;5526;42.070;24.752;2024-03-07T10:04:08;38.80;;;29.23;;
10947;SDS011;5526;42.070;24.752;2024-03-07T10:06:40;42.35;;;29.92;;
10947;SDS011;5526;42.070;24.752;2024-03-07T10:09:07;44.40;;;29.92;;
10947;SDS011;5526;42.070;24.752;2024-03-07T10:11:34;44.53;;;31.77;;
10947;SDS011;5526;42.070;24.752;2024-03-07T10:14:01;40.38;;;31.02;;
10947;SDS011;5526;42.070;24.752;2024-03-07T10:16:31;41.72;;;30.55;;
10947;SDS011;5526;42.070;24.752;2024-03-07T10:18:58;40.13;;;30.23;;
10947;SDS011;5526;42.070;24.752;2024-03-07T10:21:26;38.65;;;29.45;;
10947;SDS011;5526;42.070;24.752;2024-03-07T10:24:03;42.08;;;30.55;;
10947;SDS011;5526;42.070;24.752;2024-03-07T10:26:32;36.63;;;28.77;;
10947;SDS011;5526;42.070;24.752;2024-03-07T10:29:01;41.95;;;29.98;;
10947;SDS011;5526;42.070;24.752;2024-03-07T10:31:28;40.38;;;30.00;;
10947;SDS011;5526;42.070;24.752;2024-03-07T10:33:59;41.45;;;32.30;;
10947;SDS011;5526;42.070;24.752;2024-03-07T10:36:27;41.70;;;31.90;;
10947;SDS011;5526;42.070;24.752;2024-03-07T10:38:56;45.83;;;33.70;;
10947;SDS011;5526;42.070;24.752;2024-03-07T10:41:38;49.05;;;34.03;;
10947;SDS011;5526;42.070;24.752;2024-03-07T10:44:14;44.05;;;33.88;;
10947;SDS011;5526;42.070;24.752;2024-03-07T10:46:48;48.13;;;34.90;;
10947;SDS011;5526;42.070;24.752;2024-03-07T10:49:21;51.70;;;35.40;;
10947;SDS011;5526;42.070;24.752;2024-03-07T10:51:53;50.83;;;37.55;;
10947;SDS011;5526;42.070;24.752;2024-03-07T10:54:33;58.95;;;39.28;;
10947;SDS011;5526;42.070;24.752;2024-03-07T10:57:15;54.85;;;37.42;;
10947;SDS011;5526;42.070;24.752;2024-03-07T10:59:50;54.03;;;38.90;;
10947;SDS011;5526;42.070;24.752;2024-03-07T11:02:24;60.15;;;40.20;;
10947;SDS011;5526;42.070;24.752;2024-03-07T11:05:02;57.92;;;39.40;;
10947;SDS011;5526;42.070;24.752;2024-03-07T11:07:37;57.88;;;40.47;;
10947;SDS011;5526;42.070;24.752;2024-03-07T11:10:04;63.63;;;40.88;;
10947;SDS011;5526;42.070;24.752;2024-03-07T11:12:36;62.15;;;42.67;;
10947;SDS011;5526;42.070;24.752;2024-03-07T11:15:06;61.75;;;42.38;;
10947;SDS011;5526;42.070;24.752;2024-03-07T11:17:40;59.90;;;41.25;;
10947;SDS011;5526;42.070;24.752;2024-03-07T11:20:22;61.80;;;40.75;;
10947;SDS011;5526;42.070;24.752;2024-03-07T11:22:50;60.78;;;42.30;;
10947;SDS011;5526;42.070;24.752;2024-03-07T11:25:19;61.80;;;42.08;;
10947;SDS011;5526;42.070;24.752;2024-03-07T11:27:54;62.35;;;40.70;;
10947;SDS011;5526;42.070;24.752;2024-03-07T11:30:22;60.05;;;41.35;;
10947;SDS011;5526;42.070;24.752;2024-03-07T11:32:50;62.92;;;41.38;;
10947;SDS011;5526;42.070;24.752;2024-03-07T11:35:19;57.92;;;41.53;;
10947;SDS011;5526;42.070;24.752;2024-03-07T11:37:59;59.88;;;41.25;;
10947;SDS011;5526;42.070;24.752;2024-03-07T11:40:43;58.13;;;40.92;;
10947;SDS011;5526;42.070;24.752;2024-03-07T11:43:12;58.28;;;41.22;;
10947;SDS011;5526;42.070;24.752;2024-03-07T11:45:39;48.75;;;37.03;;
10947;SDS011;5526;42.070;24.752;2024-03-07T11:48:10;54.42;;;39.45;;
10947;SDS011;5526;42.070;24.752;2024-03-07T11:50:39;55.30;;;40.28;;
10947;SDS011;5526;42.070;24.752;2024-03-07T11:53:08;49.55;;;36.67;;
10947;SDS011;5526;42.070;24.752;2024-03-07T11:55:36;47.35;;;36.85;;
10947;SDS011;5526;42.070;24.752;2024-03-07T11:58:09;49.38;;;36.00;;
10947;SDS011;5526;42.070;24.752;2024-03-07T12:00:40;45.08;;;35.72;;
10947;SDS011;5526;42.070;24.752;2024-03-07T12:03:10;44.08;;;33.55;;
10947;SDS011;5526;42.070;24.752;2024-03-07T12:05:40;45.72;;;34.83;;
10947;SDS011;5526;42.070;24.752;2024-03-07T12:08:08;41.90;;;34.88;;
10947;SDS011;5526;42.070;24.752;2024-03-07T12:10:37;39.78;;;33.65;;
10947;SDS011;5526;42.070;24.752;2024-03-07T12:13:05;37.97;;;31.88;;
10947;SDS011;5526;42.070;24.752;2024-03-07T12:15:33;42.92;;;35.50;;
10947;SDS011;5526;42.070;24.752;2024-03-07T12:18:03;46.45;;;37.17;;
10947;SDS011;5526;42.070;24.752;2024-03-07T12:20:35;43.53;;;34.45;;
10947;SDS011;5526;42.070;24.752;2024-03-07T12:23:05;43.88;;;34.35;;
10947;SDS011;5526;42.070;24.752;2024-03-07T12:25:33;37.83;;;33.72;;
10947;SDS011;5526;42.070;24.752;2024-03-07T12:28:04;36.20;;;30.85;;
10947;SDS011;5526;42.070;24.752;2024-03-07T12:30:37;36.63;;;29.55;;
10947;SDS011;5526;42.070;24.752;2024-03-07T12:33:15;29.58;;;26.35;;
10947;SDS011;5526;42.070;24.752;2024-03-07T12:35:43;30.73;;;27.27;;
10947;SDS011;5526;42.070;24.752;2024-03-07T12:38:13;29.35;;;26.15;;
10947;SDS011;5526;42.070;24.752;2024-03-07T12:40:42;31.73;;;26.88;;
10947;SDS011;5526;42.070;24.752;2024-03-07T12:43:17;29.08;;;25.75;;
10947;SDS011;5526;42.070;24.752;2024-03-07T12:45:48;31.27;;;27.15;;
10947;SDS011;5526;42.070;24.752;2024-03-07T12:48:16;29.30;;;26.13;;
10947;SDS011;5526;42.070;24.752;2024-03-07T12:50:45;28.23;;;25.00;;
10947;SDS011;5526;42.070;24.752;2024-03-07T12:53:17;31.85;;;27.48;;
10947;SDS011;5526;42.070;24.752;2024-03-07T12:55:44;33.28;;;29.48;;
10947;SDS011;5526;42.070;24.752;2024-03-07T12:58:12;31.33;;;27.85;;
10947;SDS011;5526;42.070;24.752;2024-03-07T13:00:39;36.17;;;29.83;;
10947;SDS011;5526;42.070;24.752;2024-03-07T13:03:07;35.28;;;31.17;;
10947;SDS011;5526;42.070;24.752;2024-03-07T13:05:35;34.13;;;29.90;;
10947;SDS011;5526;42.070;24.752;2024-03-07T13:08:05;34.33;;;30.08;;
10947;SDS011;5526;42.070;24.752;2024-03-07T13:10:38;35.67;;;30.55;;
10947;SDS011;5526;42.070;24.752;2024-03-07T13:13:06;36.35;;;30.25;;
10947;SDS011;5526;42.070;24.752;2024-03-07T13:15:34;37.03;;;30.70;;
10947;SDS011;5526;42.070;24.752;2024-03-07T13:18:04;32.38;;;28.38;;
10947;SDS011;5526;42.070;24.752;2024-03-07T13:20:32;34.75;;;29.35;;
10947;SDS011;5526;42.070;24.752;2024-03-07T13:22:59;30.88;;;27.58;;
10947;SDS011;5526;42.070;24.752;2024-03-07T13:25:27;31.05;;;27.60;;
10947;SDS011;5526;42.070;24.752;2024-03-07T13:28:01;32.33;;;27.98;;
10947;SDS011;5526;42.070;24.752;2024-03-07T13:30:32;30.77;;;26.50;;
10947;SDS011;5526;42.070;24.752;2024-03-07T13:33:01;28.65;;;23.52;;
10947;SDS011;5526;42.070;24.752;2024-03-07T13:35:29;28.05;;;25.00;;
10947;SDS011;5526;42.070;24.752;2024-03-07T13:37:56;26.55;;;23.80;;
10947;SDS011;5526;42.070;24.752;2024-03-07T13:40:24;26.33;;;23.60;;
10947;SDS011;5526;42.070;24.752;2024-03-07T13:42:54;26.70;;;23.90;;
10947;SDS011;5526;42.070;24.752;2024-03-07T13:45:24;31.38;;;28.17;;
10947;SDS011;5526;42.070;24.752;2024-03-07T13:48:01;28.45;;;25.58;;
10947;SDS011;5526;42.070;24.752;2024-03-07T13:50:31;29.27;;;26.38;;
10947;SDS011;5526;42.070;24.752;2024-03-07T13:52:59;27.70;;;24.80;;
10947;SDS011;5526;42.070;24.752;2024-03-07T13:55:53;26.92;;;24.13;;
10947;SDS011;5526;42.070;24.752;2024-03-07T14:01:37;29.73;;;26.58;;
10947;SDS011;5526;42.070;24.752;2024-03-07T14:07:22;25.42;;;22.73;;
10947;SDS011;5526;42.070;24.752;2024-03-07T14:10:17;23.17;;;20.75;;
10947;SDS011;5526;42.070;24.752;2024-03-07T14:16:26;25.45;;;21.88;;
10947;SDS011;5526;42.070;24.752;2024-03-07T14:19:31;26.60;;;23.25;;
10947;SDS011;5526;42.070;24.752;2024-03-07T14:22:40;27.13;;;24.17;;
10947;SDS011;5526;42.070;24.752;2024-03-07T14:28:42;28.30;;;25.08;;
10947;SDS011;5526;42.070;24.752;2024-03-07T14:31:19;29.85;;;25.67;;
10947;SDS011;5526;42.070;24.752;2024-03-07T14:33:49;27.58;;;24.58;;
10947;SDS011;5526;42.070;24.752;2024-03-07T14:36:34;27.73;;;23.80;;
10947;SDS011;5526;42.070;24.752;2024-03-07T14:39:05;26.42;;;23.55;;
10947;SDS011;5526;42.070;24.752;2024-03-07T14:41:43;24.13;;;21.60;;
10947;SDS011;5526;42.070;24.752;2024-03-07T14:44:15;23.40;;;20.90;;
10947;SDS011;5526;42.070;24.752;2024-03-07T14:46:43;22.88;;;20.48;;